Time;durP1;ratioP1;P1;durP2;ratioP2;P2;SDS_P1;SDS_P2;PMS_P1;PMS_P2;Temp;Humidity;BMP_temperature;BMP_pressure;BME280_temperature;BME280_humidity;BME280_pressure;Samples;Min_cycle;Max_cycle;Signal;HPM_P1;HPM_P2
2023/05/23 00:00:57;;;;;;;;;10.25;7.75;;;;;;;;5058495;28;45314;-79
2023/05/23 00:03:22;;;;;;;;;8.00;6.00;;;;;;;;5058364;28;45348;-80
2023/05/23 00:05:49;;;;;;;;;7.50;5.00;;;;;;;;5057966;28;47000;-79
2023/05/23 00:08:15;;;;;;;;;7.00;7.00;;;;;;;;5057914;28;46000;-80
2023/05/23 00:10:40;;;;;;;;;9.00;7.00;;;;;;;;5058313;28;45381;-80
2023/05/23 00:13:08;;;;;;;;;9.00;6.00;;;;;;;;5058178;28;45447;-79
2023/05/23 00:15:33;;;;;;;;;12.25;7.50;;;;;;;;5058274;28;46139;-79
2023/05/23 00:17:59;;;;;;;;;5.50;5.50;;;;;;;;5057589;28;45618;-79
2023/05/23 00:20:24;;;;;;;;;5.25;5.00;;;;;;;;5058151;28;45308;-79
2023/05/23 00:22:49;;;;;;;;;11.67;7.00;;;;;;;;5058945;28;45348;-79
2023/05/23 00:25:14;;;;;;;;;8.67;7.00;;;;;;;;5057292;28;46189;-80
2023/05/23 00:27:39;;;;;;;;;8.00;7.00;;;;;;;;5058356;28;45274;-79
2023/05/23 00:30:05;;;;;;;;;14.33;9.33;;;;;;;;5057669;28;45474;-79
2023/05/23 00:32:30;;;;;;;;;13.00;8.00;;;;;;;;5057908;28;45636;-79
2023/05/23 00:34:55;;;;;;;;;8.33;6.00;;;;;;;;5057845;28;46502;-79
2023/05/23 00:37:23;;;;;;;;;6.00;5.00;;;;;;;;5057189;28;45278;-79
2023/05/23 00:39:49;;;;;;;;;9.25;8.50;;;;;;;;5057565;28;45372;-80
2023/05/23 00:42:14;;;;;;;;;8.75;5.75;;;;;;;;5057704;28;45560;-80
2023/05/23 00:44:39;;;;;;;;;12.75;7.00;;;;;;;;5057475;28;46349;-80
2023/05/23 00:47:06;;;;;;;;;10.33;7.00;;;;;;;;5057664;28;45340;-79
2023/05/23 00:49:32;;;;;;;;;12.00;7.00;;;;;;;;5057925;28;45380;-79
2023/05/23 00:51:58;;;;;;;;;11.25;6.00;;;;;;;;5057095;28;45458;-79
2023/05/23 00:54:26;;;;;;;;;9.50;8.00;;;;;;;;5056835;28;46112;-80
2023/05/23 00:56:51;;;;;;;;;9.00;7.00;;;;;;;;5057316;28;45758;-79
2023/05/23 00:59:16;;;;;;;;;12.00;8.00;;;;;;;;5056876;28;45462;-79
2023/05/23 01:01:45;;;;;;;;;16.67;9.00;;;;;;;;5057540;28;45312;-78
2023/05/23 01:04:12;;;;;;;;;6.75;6.25;;;;;;;;5057799;28;46697;-79
2023/05/23 01:06:37;;;;;;;;;14.75;7.50;;;;;;;;5057408;28;46301;-79
2023/05/23 01:09:02;;;;;;;;;16.00;8.67;;;;;;;;5056862;28;45317;-80
2023/05/23 01:11:39;;;;;;;;;10.75;8.50;;;;;;;;5056820;28;45666;-79
2023/05/23 01:14:09;;;;;;;;;13.75;6.75;;;;;;;;5057387;28;46486;-79
2023/05/23 01:16:47;;;;;;;;;9.75;6.75;;;;;;;;5056720;28;46041;-80
2023/05/23 01:19:26;;;;;;;;;9.75;7.25;;;;;;;;5057603;28;45400;-79
2023/05/23 01:21:54;;;;;;;;;10.50;7.75;;;;;;;;5057228;28;45313;-77
2023/05/23 01:24:35;;;;;;;;;9.50;5.75;;;;;;;;5055238;28;45418;-79
2023/05/23 01:27:15;;;;;;;;;12.50;8.50;;;;;;;;5056349;28;45886;-79
2023/05/23 01:29:45;;;;;;;;;15.50;10.25;;;;;;;;5039209;28;45672;-79
2023/05/23 01:32:11;;;;;;;;;10.00;6.75;;;;;;;;5056890;28;45538;-79
2023/05/23 01:34:38;;;;;;;;;12.25;6.00;;;;;;;;5056976;28;47241;-79
2023/05/23 01:37:07;;;;;;;;;11.25;7.50;;;;;;;;5057417;28;45349;-79
2023/05/23 01:39:32;;;;;;;;;14.50;11.25;;;;;;;;5057012;28;45316;-80
2023/05/23 01:41:57;;;;;;;;;11.33;10.00;;;;;;;;5056567;28;45522;-79
2023/05/23 01:44:22;;;;;;;;;13.33;10.00;;;;;;;;5056275;28;45486;-80
2023/05/23 01:46:47;;;;;;;;;15.00;8.00;;;;;;;;5056078;28;45566;-79
2023/05/23 01:49:13;;;;;;;;;12.33;7.33;;;;;;;;5056442;28;45513;-80
2023/05/23 01:51:39;;;;;;;;;17.00;9.25;;;;;;;;5057117;28;45336;-78
2023/05/23 01:54:05;;;;;;;;;13.00;8.50;;;;;;;;5056118;28;46762;-79
2023/05/23 01:56:30;;;;;;;;;13.25;6.00;;;;;;;;5056608;28;45286;-79
2023/05/23 01:58:55;;;;;;;;;10.00;7.25;;;;;;;;5056281;28;45309;-79
2023/05/23 02:01:21;;;;;;;;;12.33;8.00;;;;;;;;5056577;28;45333;-76
2023/05/23 02:03:46;;;;;;;;;14.50;11.00;;;;;;;;5055782;28;45380;-79
2023/05/23 02:06:11;;;;;;;;;9.33;8.33;;;;;;;;5056912;28;45418;-79
2023/05/23 02:08:36;;;;;;;;;9.67;7.00;;;;;;;;5055284;28;45318;-79
2023/05/23 02:11:02;;;;;;;;;11.00;6.00;;;;;;;;5055552;28;45259;-80
2023/05/23 02:13:27;;;;;;;;;10.50;7.50;;;;;;;;5038029;28;46636;-79
2023/05/23 02:15:52;;;;;;;;;9.00;6.00;;;;;;;;5056560;28;45257;-76
2023/05/23 02:18:17;;;;;;;;;11.33;8.00;;;;;;;;5056118;28;45385;-77
2023/05/23 02:20:42;;;;;;;;;10.67;6.00;;;;;;;;5055995;28;45470;-76
2023/05/23 02:23:08;;;;;;;;;11.67;9.00;;;;;;;;5055624;28;45548;-80
2023/05/23 02:25:33;;;;;;;;;15.00;9.50;;;;;;;;5056347;28;45444;-79
2023/05/23 02:27:59;;;;;;;;;12.00;6.00;;;;;;;;5056362;28;45603;-80
2023/05/23 02:30:24;;;;;;;;;12.33;7.33;;;;;;;;5056159;28;45511;-79
2023/05/23 02:32:50;;;;;;;;;15.33;9.00;;;;;;;;5055698;28;46400;-80
2023/05/23 02:35:15;;;;;;;;;12.25;7.00;;;;;;;;5055566;28;45381;-80
2023/05/23 02:37:41;;;;;;;;;6.50;6.00;;;;;;;;5055733;28;45556;-79
2023/05/23 02:40:06;;;;;;;;;12.00;7.00;;;;;;;;5055956;28;45454;-79
2023/05/23 02:42:32;;;;;;;;;8.25;6.50;;;;;;;;5056068;28;45444;-79
2023/05/23 02:44:57;;;;;;;;;8.25;7.00;;;;;;;;5056486;28;45387;-79
2023/05/23 02:47:22;;;;;;;;;16.33;8.67;;;;;;;;5055838;28;45641;-79
2023/05/23 02:49:47;;;;;;;;;10.00;8.67;;;;;;;;5055869;28;45357;-80
2023/05/23 02:52:13;;;;;;;;;9.67;7.00;;;;;;;;5055715;28;46104;-80
2023/05/23 02:54:38;;;;;;;;;14.00;7.33;;;;;;;;5055817;28;45398;-80
2023/05/23 02:57:03;;;;;;;;;9.00;8.00;;;;;;;;5056062;28;45355;-80
2023/05/23 02:59:29;;;;;;;;;14.00;7.25;;;;;;;;5055369;28;45356;-79
2023/05/23 03:01:55;;;;;;;;;9.50;6.75;;;;;;;;5055498;28;45360;-80
2023/05/23 03:04:20;;;;;;;;;12.00;7.50;;;;;;;;5055332;28;45409;-79
2023/05/23 03:06:46;;;;;;;;;15.50;7.50;;;;;;;;5054942;28;45237;-80
2023/05/23 03:09:11;;;;;;;;;12.25;7.00;;;;;;;;5055409;28;45321;-80
2023/05/23 03:11:36;;;;;;;;;11.00;9.67;;;;;;;;5055630;28;45408;-80
2023/05/23 03:14:02;;;;;;;;;11.33;8.33;;;;;;;;5055166;28;45479;-79
2023/05/23 03:16:27;;;;;;;;;14.33;9.00;;;;;;;;5055120;28;45456;-79
2023/05/23 03:18:52;;;;;;;;;10.33;9.67;;;;;;;;5054896;28;45396;-81
2023/05/23 03:21:17;;;;;;;;;11.33;6.00;;;;;;;;5056184;28;45380;-79
2023/05/23 03:23:42;;;;;;;;;12.00;9.33;;;;;;;;5058909;28;45317;-80
2023/05/23 03:26:08;;;;;;;;;10.00;6.75;;;;;;;;5058963;28;45269;-80
2023/05/23 03:28:33;;;;;;;;;13.33;9.33;;;;;;;;5059106;28;45614;-78
2023/05/23 03:30:58;;;;;;;;;10.67;9.67;;;;;;;;5059357;28;45368;-78
2023/05/23 03:33:23;;;;;;;;;5.00;5.00;;;;;;;;5058437;28;45266;-78
2023/05/23 03:35:49;;;;;;;;;10.00;7.67;;;;;;;;5058884;28;45290;-80
2023/05/23 03:38:14;;;;;;;;;10.25;6.25;;;;;;;;5058473;28;45609;-80
2023/05/23 03:40:39;;;;;;;;;10.67;9.00;;;;;;;;5058167;28;45412;-80
2023/05/23 03:43:05;;;;;;;;;15.67;12.00;;;;;;;;5058477;28;45447;-79
2023/05/23 03:45:31;;;;;;;;;8.25;5.25;;;;;;;;5058497;28;45356;-80
2023/05/23 03:47:56;;;;;;;;;19.25;13.25;;;;;;;;5057713;28;45439;-79
2023/05/23 03:50:21;;;;;;;;;12.00;11.00;;;;;;;;5058366;28;45433;-80
2023/05/23 03:52:47;;;;;;;;;11.67;8.33;;;;;;;;5058170;28;45585;-80
2023/05/23 03:55:12;;;;;;;;;14.00;9.00;;;;;;;;5058688;28;45349;-79
2023/05/23 03:57:37;;;;;;;;;11.00;10.00;;;;;;;;5058952;28;45701;-79
2023/05/23 04:00:05;;;;;;;;;9.00;6.33;;;;;;;;5040312;28;46756;-80
2023/05/23 04:02:31;;;;;;;;;10.25;6.00;;;;;;;;5058046;28;45337;-79
2023/05/23 04:04:56;;;;;;;;;11.50;9.25;;;;;;;;5058066;28;45281;-79
2023/05/23 04:07:22;;;;;;;;;12.50;8.00;;;;;;;;5058320;28;45311;-79
2023/05/23 04:09:47;;;;;;;;;9.00;6.00;;;;;;;;5058129;28;45824;-79
2023/05/23 04:12:12;;;;;;;;;13.33;9.33;;;;;;;;5057910;28;45658;-79
2023/05/23 04:14:38;;;;;;;;;13.00;6.00;;;;;;;;5058211;28;45955;-79
2023/05/23 04:17:03;;;;;;;;;7.25;6.00;;;;;;;;5058026;28;45408;-79
2023/05/23 04:19:28;;;;;;;;;6.50;6.00;;;;;;;;5058267;28;45613;-79
2023/05/23 04:21:53;;;;;;;;;7.67;6.00;;;;;;;;5057726;28;45566;-80
2023/05/23 04:24:19;;;;;;;;;10.67;7.33;;;;;;;;5057960;28;45323;-80
2023/05/23 04:26:44;;;;;;;;;9.00;6.00;;;;;;;;5057997;28;45652;-79
2023/05/23 04:29:11;;;;;;;;;11.33;6.00;;;;;;;;5057849;28;46255;-80
2023/05/23 04:31:36;;;;;;;;;7.75;5.25;;;;;;;;5055196;28;45892;-79
2023/05/23 04:34:01;;;;;;;;;6.33;6.33;;;;;;;;5055829;28;45442;-79
2023/05/23 04:36:26;;;;;;;;;10.25;8.75;;;;;;;;5058251;28;45360;-79
2023/05/23 04:38:52;;;;;;;;;5.33;5.33;;;;;;;;5057421;28;47219;-79
2023/05/23 04:41:22;;;;;;;;;10.00;6.75;;;;;;;;5057841;28;45389;-79
2023/05/23 04:43:47;;;;;;;;;9.25;6.00;;;;;;;;5057933;28;45340;-79
2023/05/23 04:46:12;;;;;;;;;10.33;4.33;;;;;;;;5057870;28;45516;-79
2023/05/23 04:48:37;;;;;;;;;7.75;6.75;;;;;;;;5056859;28;46615;-79
2023/05/23 04:51:07;;;;;;;;;6.33;5.33;;;;;;;;5039561;28;45322;-79
2023/05/23 04:53:33;;;;;;;;;4.25;4.00;;;;;;;;5055108;28;45609;-78
2023/05/23 04:55:58;;;;;;;;;7.25;4.75;;;;;;;;5059248;28;45443;-80
2023/05/23 04:58:24;;;;;;;;;9.00;5.00;;;;;;;;5057178;28;46602;-79
2023/05/23 05:00:49;;;;;;;;;5.00;4.75;;;;;;;;5057131;28;45567;-79
2023/05/23 05:03:15;;;;;;;;;9.00;6.00;;;;;;;;5056600;28;45345;-79
2023/05/23 05:05:40;;;;;;;;;10.00;6.00;;;;;;;;5057389;28;45457;-79
2023/05/23 05:08:06;;;;;;;;;5.25;4.00;;;;;;;;5057116;28;47119;-79
2023/05/23 05:10:31;;;;;;;;;4.25;4.00;;;;;;;;5057265;28;45692;-79
2023/05/23 05:12:56;;;;;;;;;11.33;9.00;;;;;;;;5057266;28;45420;-79
2023/05/23 05:15:22;;;;;;;;;8.33;6.00;;;;;;;;5057131;28;45289;-79
2023/05/23 05:17:47;;;;;;;;;7.25;3.00;;;;;;;;5057059;28;45273;-79
2023/05/23 05:20:12;;;;;;;;;6.00;4.67;;;;;;;;5057211;28;45734;-79
2023/05/23 05:22:41;;;;;;;;;6.00;4.00;;;;;;;;5057075;28;45443;-79
2023/05/23 05:25:07;;;;;;;;;5.50;5.00;;;;;;;;5057338;28;45409;-79
2023/05/23 05:27:33;;;;;;;;;7.25;5.00;;;;;;;;5056909;28;45360;-79
2023/05/23 05:30:03;;;;;;;;;9.00;5.00;;;;;;;;5056668;28;45337;-79
2023/05/23 05:32:30;;;;;;;;;8.25;6.00;;;;;;;;5038730;28;45423;-79
2023/05/23 05:34:55;;;;;;;;;8.75;4.50;;;;;;;;5056468;28;45584;-80
2023/05/23 05:37:21;;;;;;;;;7.33;5.00;;;;;;;;5056387;28;45377;-80
2023/05/23 05:39:46;;;;;;;;;9.75;4.00;;;;;;;;5056792;28;45372;-79
2023/05/23 05:42:12;;;;;;;;;5.50;3.00;;;;;;;;5057493;28;45336;-80
2023/05/23 05:44:37;;;;;;;;;5.00;4.00;;;;;;;;5037729;28;45570;-80
2023/05/23 05:47:02;;;;;;;;;5.33;4.67;;;;;;;;5056388;28;45526;-79
2023/05/23 05:49:27;;;;;;;;;10.33;3.33;;;;;;;;5056962;28;45455;-79
2023/05/23 05:51:52;;;;;;;;;7.33;4.00;;;;;;;;5056376;28;45463;-79
2023/05/23 05:54:17;;;;;;;;;7.67;5.00;;;;;;;;5056350;28;45449;-79
2023/05/23 05:56:43;;;;;;;;;6.67;4.00;;;;;;;;5056609;28;45479;-80
2023/05/23 05:59:08;;;;;;;;;2.67;2.00;;;;;;;;5056050;28;45535;-78
2023/05/23 06:01:33;;;;;;;;;4.33;3.67;;;;;;;;5056595;28;45367;-79
2023/05/23 06:03:59;;;;;;;;;6.00;4.00;;;;;;;;5056409;28;45339;-79
2023/05/23 06:06:24;;;;;;;;;7.00;7.00;;;;;;;;5056223;28;46896;-79
2023/05/23 06:08:49;;;;;;;;;6.00;4.00;;;;;;;;5055912;28;45394;-78
2023/05/23 06:11:15;;;;;;;;;10.00;5.00;;;;;;;;5055729;28;45290;-78
2023/05/23 06:13:40;;;;;;;;;8.75;5.00;;;;;;;;5053803;28;45469;-78
2023/05/23 06:16:05;;;;;;;;;4.67;3.33;;;;;;;;5055993;28;46280;-77
2023/05/23 06:18:31;;;;;;;;;4.00;4.00;;;;;;;;5055733;28;45325;-78
2023/05/23 06:20:56;;;;;;;;;9.00;4.67;;;;;;;;5056132;28;45205;-78
2023/05/23 06:23:21;;;;;;;;;10.33;4.00;;;;;;;;5055963;28;45424;-78
2023/05/23 06:25:46;;;;;;;;;7.33;3.33;;;;;;;;5055528;28;46330;-78
2023/05/23 06:28:11;;;;;;;;;6.67;5.00;;;;;;;;5055538;28;45403;-78
2023/05/23 06:30:37;;;;;;;;;4.67;4.33;;;;;;;;5056127;28;45341;-79
2023/05/23 06:33:02;;;;;;;;;8.00;4.50;;;;;;;;5055807;28;45401;-79
2023/05/23 06:35:28;;;;;;;;;8.67;5.00;;;;;;;;5055248;28;47206;-78
2023/05/23 06:37:53;;;;;;;;;11.33;5.67;;;;;;;;5055503;28;45597;-79
2023/05/23 06:40:18;;;;;;;;;8.00;5.00;;;;;;;;5055663;28;45410;-78
2023/05/23 06:42:43;;;;;;;;;8.00;7.00;;;;;;;;5054333;28;45532;-79
2023/05/23 06:45:09;;;;;;;;;7.50;4.00;;;;;;;;5055274;28;45744;-79
2023/05/23 06:47:34;;;;;;;;;5.00;2.00;;;;;;;;5055280;28;45470;-78
2023/05/23 06:49:59;;;;;;;;;6.00;5.00;;;;;;;;5055544;28;45906;-79
2023/05/23 06:52:24;;;;;;;;;6.33;6.33;;;;;;;;5055793;28;45391;-79
2023/05/23 06:54:50;;;;;;;;;10.67;6.00;;;;;;;;5055032;28;45377;-79
2023/05/23 06:57:15;;;;;;;;;9.00;6.25;;;;;;;;5054200;28;45516;-79
2023/05/23 06:59:40;;;;;;;;;8.50;5.50;;;;;;;;5055174;28;45458;-79
2023/05/23 07:02:05;;;;;;;;;12.00;6.33;;;;;;;;5055321;28;45486;-79
2023/05/23 07:04:31;;;;;;;;;10.00;5.67;;;;;;;;5054856;28;45454;-79
2023/05/23 07:06:56;;;;;;;;;11.33;5.33;;;;;;;;5055318;28;45540;-79
2023/05/23 07:09:21;;;;;;;;;10.67;8.67;;;;;;;;5055153;28;45406;-79
2023/05/23 07:11:46;;;;;;;;;5.67;5.67;;;;;;;;5054685;28;45363;-79
2023/05/23 07:14:11;;;;;;;;;7.33;5.00;;;;;;;;5054961;28;46334;-79
2023/05/23 07:16:36;;;;;;;;;10.67;6.67;;;;;;;;5054905;28;45633;-78
2023/05/23 07:19:02;;;;;;;;;6.00;5.00;;;;;;;;5054087;28;45639;-79
2023/05/23 07:21:27;;;;;;;;;7.25;5.00;;;;;;;;5050527;28;45668;-79
2023/05/23 07:23:52;;;;;;;;;8.00;5.33;;;;;;;;5052837;28;46837;-79
2023/05/23 07:26:17;;;;;;;;;4.67;4.33;;;;;;;;5054890;28;45505;-79
2023/05/23 07:28:43;;;;;;;;;4.33;4.00;;;;;;;;5055365;28;45443;-79
2023/05/23 07:31:08;;;;;;;;;5.25;3.75;;;;;;;;5054297;28;45327;-80
2023/05/23 07:33:33;;;;;;;;;7.00;4.25;;;;;;;;5053114;28;46147;-79
2023/05/23 07:35:59;;;;;;;;;9.00;4.67;;;;;;;;5053205;28;45642;-77
2023/05/23 07:38:25;;;;;;;;;7.75;5.00;;;;;;;;5054664;28;45329;-79
2023/05/23 07:40:50;;;;;;;;;6.00;5.00;;;;;;;;5036640;28;45444;-78
2023/05/23 07:43:16;;;;;;;;;7.67;4.33;;;;;;;;5054388;28;45228;-79
2023/05/23 07:45:41;;;;;;;;;3.67;3.00;;;;;;;;5054518;28;45411;-79
2023/05/23 07:48:07;;;;;;;;;2.67;2.67;;;;;;;;5054819;28;45307;-78
2023/05/23 07:50:32;;;;;;;;;11.75;4.00;;;;;;;;5054697;28;45538;-79
2023/05/23 07:52:57;;;;;;;;;5.00;4.00;;;;;;;;5046046;28;45589;-79
2023/05/23 07:55:23;;;;;;;;;4.67;3.33;;;;;;;;5042941;28;45508;-79
2023/05/23 07:57:48;;;;;;;;;5.50;5.50;;;;;;;;5047062;28;45454;-79
2023/05/23 08:00:13;;;;;;;;;10.00;5.67;;;;;;;;5044403;28;45633;-78
2023/05/23 08:02:39;;;;;;;;;5.00;5.00;;;;;;;;5053272;28;46068;-78
2023/05/23 08:05:04;;;;;;;;;8.33;5.00;;;;;;;;5039044;28;45355;-79
2023/05/23 08:07:29;;;;;;;;;10.00;5.50;;;;;;;;5053740;28;46091;-78
2023/05/23 08:09:54;;;;;;;;;8.33;6.00;;;;;;;;5050199;28;45372;-77
2023/05/23 08:12:20;;;;;;;;;9.67;4.00;;;;;;;;5049751;28;46722;-77
2023/05/23 08:14:45;;;;;;;;;6.00;4.00;;;;;;;;5057393;28;45473;-77
2023/05/23 08:17:11;;;;;;;;;11.33;6.00;;;;;;;;5042578;28;45590;-77
2023/05/23 08:19:36;;;;;;;;;4.75;4.75;;;;;;;;5047247;28;45466;-77
2023/05/23 08:22:03;;;;;;;;;9.00;5.25;;;;;;;;5050729;28;46046;-77
2023/05/23 08:24:29;;;;;;;;;7.00;7.00;;;;;;;;5049963;28;45357;-78
2023/05/23 08:26:54;;;;;;;;;6.50;4.75;;;;;;;;5052816;28;45495;-78
2023/05/23 08:29:20;;;;;;;;;6.00;4.33;;;;;;;;5050352;28;45455;-77
2023/05/23 08:31:45;;;;;;;;;10.75;5.50;;;;;;;;5056047;28;45449;-77
2023/05/23 08:34:11;;;;;;;;;7.50;5.25;;;;;;;;5054252;28;45380;-77
2023/05/23 08:36:38;;;;;;;;;8.00;6.00;;;;;;;;5056674;28;45340;-77
2023/05/23 08:39:03;;;;;;;;;12.50;5.75;;;;;;;;5056185;28;45499;-77
2023/05/23 08:41:29;;;;;;;;;9.33;6.67;;;;;;;;5038866;28;47428;-77
2023/05/23 08:43:55;;;;;;;;;13.00;10.25;;;;;;;;5044203;28;45278;-77
2023/05/23 08:46:21;;;;;;;;;10.50;8.75;;;;;;;;5047301;28;47041;-78
2023/05/23 08:48:49;;;;;;;;;10.25;8.50;;;;;;;;5055212;28;45490;-78
2023/05/23 08:51:16;;;;;;;;;10.00;4.50;;;;;;;;5055163;28;46610;-78
2023/05/23 08:53:45;;;;;;;;;12.75;7.25;;;;;;;;5053633;28;45956;-77
2023/05/23 08:56:11;;;;;;;;;14.50;7.75;;;;;;;;5055123;28;45629;-77
2023/05/23 08:58:37;;;;;;;;;12.00;7.25;;;;;;;;5056327;28;45578;-77
2023/05/23 09:01:02;;;;;;;;;6.00;4.00;;;;;;;;5047120;28;46533;-77
2023/05/23 09:03:28;;;;;;;;;8.33;6.00;;;;;;;;5056112;28;45629;-76
2023/05/23 09:05:54;;;;;;;;;9.75;5.00;;;;;;;;5055405;28;45431;-76
2023/05/23 09:08:19;;;;;;;;;13.25;10.00;;;;;;;;5050228;28;45556;-77
2023/05/23 09:10:45;;;;;;;;;6.75;4.75;;;;;;;;5053608;28;46654;-77
2023/05/23 09:13:10;;;;;;;;;11.75;5.00;;;;;;;;5052390;28;45467;-77
2023/05/23 09:15:36;;;;;;;;;14.50;6.25;;;;;;;;5054669;28;45536;-76
2023/05/23 09:18:02;;;;;;;;;8.75;3.50;;;;;;;;5050705;28;45459;-77
2023/05/23 09:20:27;;;;;;;;;11.75;5.75;;;;;;;;5047024;28;45566;-75
2023/05/23 09:22:53;;;;;;;;;13.00;7.25;;;;;;;;5052137;28;45828;-77
2023/05/23 09:25:19;;;;;;;;;5.00;5.00;;;;;;;;5056321;28;45341;-77
2023/05/23 09:27:44;;;;;;;;;11.00;6.75;;;;;;;;5055906;28;45607;-76
2023/05/23 09:30:09;;;;;;;;;8.00;6.67;;;;;;;;5053575;28;46703;-77
2023/05/23 09:32:35;;;;;;;;;11.00;6.50;;;;;;;;5034093;28;45536;-77
2023/05/23 09:35:03;;;;;;;;;12.00;8.00;;;;;;;;5047161;28;45547;-77
2023/05/23 09:37:33;;;;;;;;;10.00;6.25;;;;;;;;5055211;28;45381;-78
2023/05/23 09:40:05;;;;;;;;;15.00;7.00;;;;;;;;5054396;28;46441;-78
2023/05/23 09:42:32;;;;;;;;;7.00;6.00;;;;;;;;5055469;28;45492;-78
2023/05/23 09:44:57;;;;;;;;;6.75;6.00;;;;;;;;5042749;28;45287;-77
2023/05/23 09:47:22;;;;;;;;;7.00;6.00;;;;;;;;5049058;28;45411;-77
2023/05/23 09:49:48;;;;;;;;;5.33;4.33;;;;;;;;5055165;28;46093;-77
2023/05/23 09:52:13;;;;;;;;;11.00;6.75;;;;;;;;5054400;28;45344;-77
2023/05/23 09:54:38;;;;;;;;;13.67;6.00;;;;;;;;5050282;28;45539;-78
2023/05/23 09:57:08;;;;;;;;;6.75;5.50;;;;;;;;5054325;28;45641;-77
2023/05/23 09:59:35;;;;;;;;;10.50;7.00;;;;;;;;5052905;28;45439;-76
2023/05/23 10:02:02;;;;;;;;;8.75;6.75;;;;;;;;5055243;28;45706;-78
2023/05/23 10:04:31;;;;;;;;;11.00;5.75;;;;;;;;5037599;28;45265;-79
2023/05/23 10:07:00;;;;;;;;;6.50;5.25;;;;;;;;5052423;28;45628;-78
2023/05/23 10:09:27;;;;;;;;;8.25;7.25;;;;;;;;5054589;28;45459;-78
2023/05/23 10:11:52;;;;;;;;;6.50;6.25;;;;;;;;5051092;28;45639;-78
2023/05/23 10:14:17;;;;;;;;;5.50;5.50;;;;;;;;5037374;28;45422;-77
2023/05/23 10:16:49;;;;;;;;;7.00;7.00;;;;;;;;5053846;28;45673;-78
2023/05/23 10:19:25;;;;;;;;;12.00;5.50;;;;;;;;5054398;28;45506;-77
2023/05/23 10:21:55;;;;;;;;;10.75;3.25;;;;;;;;5041018;28;45249;-78
2023/05/23 10:24:21;;;;;;;;;11.25;5.00;;;;;;;;5029828;28;45547;-79
2023/05/23 10:26:46;;;;;;;;;10.75;7.00;;;;;;;;5039185;28;45355;-79
2023/05/23 10:29:12;;;;;;;;;7.25;5.50;;;;;;;;5039861;28;46353;-78
2023/05/23 10:31:37;;;;;;;;;8.50;5.75;;;;;;;;5043775;28;45446;-80
2023/05/23 10:34:25;;;;;;;;;12.25;7.00;;;;;;;;5055011;28;45456;-79
2023/05/23 10:37:07;;;;;;;;;9.50;5.00;;;;;;;;5024897;28;45534;-79
2023/05/23 10:39:35;;;;;;;;;10.25;7.00;;;;;;;;5022295;28;47598;-79
2023/05/23 10:42:10;;;;;;;;;12.00;3.25;;;;;;;;5044319;28;45407;-78
2023/05/23 10:44:35;;;;;;;;;13.25;6.50;;;;;;;;5046945;28;45415;-79
2023/05/23 10:47:02;;;;;;;;;7.50;4.50;;;;;;;;5044210;28;45540;-80
2023/05/23 10:49:41;;;;;;;;;8.75;5.00;;;;;;;;5054148;28;46459;-80
2023/05/23 10:52:07;;;;;;;;;10.25;6.25;;;;;;;;5046185;28;45796;-78
2023/05/23 10:54:49;;;;;;;;;6.75;6.00;;;;;;;;5049412;28;45484;-77
2023/05/23 10:57:15;;;;;;;;;8.50;5.25;;;;;;;;5053462;28;45574;-78
2023/05/23 10:59:41;;;;;;;;;6.00;4.50;;;;;;;;5048578;28;47316;-77
2023/05/23 11:02:11;;;;;;;;;8.00;5.50;;;;;;;;5053576;28;45431;-77
2023/05/23 11:04:36;;;;;;;;;5.50;5.00;;;;;;;;5051321;28;45310;-77
2023/05/23 11:07:01;;;;;;;;;6.00;5.00;;;;;;;;5046666;28;45306;-78
2023/05/23 11:09:26;;;;;;;;;7.00;5.25;;;;;;;;5049060;28;46909;-77
2023/05/23 11:11:53;;;;;;;;;5.33;4.00;;;;;;;;5051115;28;45337;-77
2023/05/23 11:14:38;;;;;;;;;9.75;6.50;;;;;;;;5052756;28;45517;-78
2023/05/23 11:17:16;;;;;;;;;9.00;4.00;;;;;;;;5034195;28;45496;-76
2023/05/23 11:19:59;;;;;;;;;9.50;5.50;;;;;;;;5049718;28;45699;-77
2023/05/23 11:22:30;;;;;;;;;6.50;4.00;;;;;;;;5046971;28;45742;-78
2023/05/23 11:24:56;;;;;;;;;7.00;5.25;;;;;;;;5034596;28;45316;-77
2023/05/23 11:27:31;;;;;;;;;8.50;7.00;;;;;;;;5034418;28;45348;-77
2023/05/23 11:30:03;;;;;;;;;4.75;4.75;;;;;;;;5034422;28;46174;-78
2023/05/23 11:32:30;;;;;;;;;6.50;6.50;;;;;;;;5053424;28;45869;-78
2023/05/23 11:34:57;;;;;;;;;7.75;7.25;;;;;;;;5054982;28;45346;-77
2023/05/23 11:37:24;;;;;;;;;7.00;6.00;;;;;;;;5054781;28;45633;-77
2023/05/23 11:39:50;;;;;;;;;8.00;5.25;;;;;;;;5054335;28;45481;-77
2023/05/23 11:42:15;;;;;;;;;4.00;4.00;;;;;;;;5055748;28;45951;-77
2023/05/23 11:44:40;;;;;;;;;8.33;6.00;;;;;;;;5058008;28;45526;-77
2023/05/23 11:47:06;;;;;;;;;8.33;6.33;;;;;;;;5058334;28;45394;-77
2023/05/23 11:49:35;;;;;;;;;8.25;5.50;;;;;;;;5057376;28;46237;-77
2023/05/23 11:52:01;;;;;;;;;8.00;7.00;;;;;;;;5054196;28;45575;-77
2023/05/23 11:54:26;;;;;;;;;7.00;5.75;;;;;;;;5056190;28;45459;-76
2023/05/23 11:56:52;;;;;;;;;6.75;6.00;;;;;;;;5057850;28;45468;-76
2023/05/23 11:59:17;;;;;;;;;9.75;6.75;;;;;;;;5058103;28;45925;-76
2023/05/23 12:01:42;;;;;;;;;6.67;5.00;;;;;;;;5057437;28;45317;-77
2023/05/23 12:04:08;;;;;;;;;6.33;6.33;;;;;;;;5057513;28;45368;-76
2023/05/23 12:06:33;;;;;;;;;11.00;7.00;;;;;;;;5057973;28;45461;-77
2023/05/23 12:08:59;;;;;;;;;5.00;5.00;;;;;;;;5057505;28;46500;-77
2023/05/23 12:11:25;;;;;;;;;5.25;5.25;;;;;;;;5049150;28;45870;-77
2023/05/23 12:13:51;;;;;;;;;7.25;4.50;;;;;;;;5057519;28;45404;-77
2023/05/23 12:16:16;;;;;;;;;5.25;4.00;;;;;;;;5063981;28;45424;-77
2023/05/23 12:18:41;;;;;;;;;6.00;6.00;;;;;;;;5077894;28;46120;-77
2023/05/23 12:21:07;;;;;;;;;4.00;4.00;;;;;;;;5078031;28;45371;-76
2023/05/23 12:23:32;;;;;;;;;7.00;3.00;;;;;;;;5077472;27;45479;-76
2023/05/23 12:25:57;;;;;;;;;6.75;5.75;;;;;;;;5077870;28;45314;-77
2023/05/23 12:28:43;;;;;;;;;5.67;4.67;;;;;;;;5077998;28;46259;-77
2023/05/23 12:31:14;;;;;;;;;7.50;5.75;;;;;;;;5058516;28;45534;-77
2023/05/23 12:33:44;;;;;;;;;4.75;4.00;;;;;;;;5057081;28;45371;-76
2023/05/23 12:36:10;;;;;;;;;4.50;2.50;;;;;;;;5057685;28;45443;-77
2023/05/23 12:38:36;;;;;;;;;10.25;4.00;;;;;;;;5057408;28;46257;-77
2023/05/23 12:41:15;;;;;;;;;4.75;3.75;;;;;;;;5057359;28;45720;-77
2023/05/23 12:43:40;;;;;;;;;2.25;2.25;;;;;;;;5057312;28;45383;-76
2023/05/23 12:46:08;;;;;;;;;4.75;4.50;;;;;;;;5052476;28;45883;-77
2023/05/23 12:48:34;;;;;;;;;4.50;3.75;;;;;;;;5058920;28;45380;-77
2023/05/23 12:51:01;;;;;;;;;5.25;4.75;;;;;;;;5056762;28;45408;-77
2023/05/23 12:53:27;;;;;;;;;7.25;4.00;;;;;;;;5056213;28;45262;-76
2023/05/23 12:55:52;;;;;;;;;4.75;4.00;;;;;;;;5057087;28;45428;-77
2023/05/23 12:58:17;;;;;;;;;5.33;4.00;;;;;;;;5056960;28;45526;-77
2023/05/23 13:00:42;;;;;;;;;5.00;3.33;;;;;;;;5049754;28;45791;-77
2023/05/23 13:03:08;;;;;;;;;5.00;1.67;;;;;;;;5052436;28;46425;-77
2023/05/23 13:05:33;;;;;;;;;4.00;2.75;;;;;;;;5050988;28;45509;-77
2023/05/23 13:07:59;;;;;;;;;2.00;1.75;;;;;;;;5054617;28;47122;-78
2023/05/23 13:10:24;;;;;;;;;2.50;2.00;;;;;;;;5055635;28;45431;-77
2023/05/23 13:12:49;;;;;;;;;5.33;2.00;;;;;;;;5047411;28;45554;-77
2023/05/23 13:15:14;;;;;;;;;4.00;2.00;;;;;;;;5047764;28;45412;-77
2023/05/23 13:17:39;;;;;;;;;3.00;2.00;;;;;;;;5049561;28;46916;-77
2023/05/23 13:20:06;;;;;;;;;5.00;1.00;;;;;;;;5049054;28;45499;-77
2023/05/23 13:22:31;;;;;;;;;4.00;2.00;;;;;;;;5043497;28;45554;-77
2023/05/23 13:24:56;;;;;;;;;3.67;2.00;;;;;;;;5050936;28;45444;-77
2023/05/23 13:27:21;;;;;;;;;4.00;1.00;;;;;;;;5055009;28;46374;-78
2023/05/23 13:29:47;;;;;;;;;5.00;3.00;;;;;;;;5050033;28;45383;-77
2023/05/23 13:32:12;;;;;;;;;6.00;5.00;;;;;;;;5053531;28;45301;-77
2023/05/23 13:34:37;;;;;;;;;3.33;1.33;;;;;;;;5052236;28;45413;-76
2023/05/23 13:37:03;;;;;;;;;4.67;4.33;;;;;;;;5053852;28;46143;-77
2023/05/23 13:39:28;;;;;;;;;3.00;2.75;;;;;;;;5056014;28;45838;-77
2023/05/23 13:41:53;;;;;;;;;3.33;2.00;;;;;;;;5043391;28;45362;-76
2023/05/23 13:44:19;;;;;;;;;2.67;2.67;;;;;;;;5055348;28;45395;-77
2023/05/23 13:46:44;;;;;;;;;6.00;2.00;;;;;;;;5033665;28;46410;-77
2023/05/23 13:49:09;;;;;;;;;5.67;3.00;;;;;;;;5046997;28;46132;-77
2023/05/23 13:51:36;;;;;;;;;6.33;2.00;;;;;;;;5049934;28;45567;-77
2023/05/23 13:54:01;;;;;;;;;2.00;2.00;;;;;;;;5055816;28;45464;-76
2023/05/23 13:56:27;;;;;;;;;6.25;2.00;;;;;;;;5053939;28;46276;-77
2023/05/23 13:58:52;;;;;;;;;4.25;2.00;;;;;;;;5047316;28;45444;-77
2023/05/23 14:01:17;;;;;;;;;7.00;2.67;;;;;;;;5038095;28;45426;-76
2023/05/23 14:03:42;;;;;;;;;4.67;2.67;;;;;;;;5052225;28;45368;-75
2023/05/23 14:06:07;;;;;;;;;4.33;4.33;;;;;;;;5050278;28;46294;-77
2023/05/23 14:08:33;;;;;;;;;4.00;2.67;;;;;;;;5055375;28;45234;-78
2023/05/23 14:10:58;;;;;;;;;2.75;2.75;;;;;;;;5054229;28;45294;-77
2023/05/23 14:13:24;;;;;;;;;6.67;3.00;;;;;;;;5054298;28;45531;-77
2023/05/23 14:15:50;;;;;;;;;2.50;2.50;;;;;;;;5049876;28;45597;-77
2023/05/23 14:18:15;;;;;;;;;6.00;2.00;;;;;;;;5055398;28;45501;-77
2023/05/23 14:20:40;;;;;;;;;3.67;2.00;;;;;;;;5055238;28;45512;-78
2023/05/23 14:23:05;;;;;;;;;5.00;2.00;;;;;;;;5053357;28;45494;-78
2023/05/23 14:25:31;;;;;;;;;3.00;2.00;;;;;;;;5049889;28;45396;-77
2023/05/23 14:27:56;;;;;;;;;1.50;1.00;;;;;;;;5053841;28;45567;-78
2023/05/23 14:30:21;;;;;;;;;6.00;3.00;;;;;;;;5040589;28;45488;-77
2023/05/23 14:32:46;;;;;;;;;2.33;2.00;;;;;;;;5035479;28;45438;-77